Southwest Washington Regional Airport Kelso US
ICAO: KKLS
IATA: KLS
Category: Medium
Scheduled Services: No

Elevation: 20 ft
TransAlt. 18000 ft.

Airport Communications:
AWOS 3:135.075
SEATTLE CNTR:124.2
SEATTLE RDO:122.25
CTAF/UNICOM:122.8

KKLS Zoom In..

If you have problems with the map follow the link
https://www.worldairports.se/pages/airport.php?
ICAO=KKLS

Runways:

(A) RW 12 length 4391 ft width 100 ft
---- / hdg 123

(B) RW 30 length 4391 ft width 100 ft
---- / hdg 303

Location; KKLS
Day. 07 / Time. 07.56 Zulu
* Altimeter: 29.81
* Temperature: 07° c. 44.6°f.
* Wind from: 150° Speed 05 kn.
Dewpoint: 06° c.
Visibility: 6 Statute Miles.
Clouds: Few 600 ft.
Clouds: Overcast 6000 ft.
Conditions: Light Rain.Conditions: Mist.

KKLS 070756Z AUTO 15005KT 6SM -RA BR FEW006 OVC060 07/06 A2981 RMK AO2 SLP097 P0003 T00670056 400830022


Wind From 150°
Speed 05 kn.

 
 
jpsmedia worldairports.se 2019   terms of use